Amity, ME

8:34 PM EDT on April 27, 2015 (GMT -0400)
Sunnyside Family Farm - Ferme Ensoleillee Familiale | | Change Station
CLOSE
Current Station
Personal Weather Station
Location: Linneus, ME
Elevation: 594 ft
Nearby Weather Stations

Elev 594 ft 46.07 °N, 67.99 °W | Updated 4 minutes ago

Overcast
Overcast
40.6 °F
Feels Like 32 °F
N
16.0
Wind Variable Wind from NE
Gusts 31.0 mph

Today
High -- | Low -- °F
--% Chance of Precip.
Yesterday
High -- | Low -- °F
Precip. -- in
5:25 AM 7:33 PM
Waxing Gibbous, 69% visible
Pressure 29.66 in
Visibility 10.0 miles
Clouds Overcast 3500 ft
Windchill 32 °F
Dew Point 33 °F
Humidity 75%
Rainfall 0.02 in
Snow Depth Not available.
UV 0 out of 12
Pollen 5.50 out of 12
Air Quality Not available.
Flu Activity Regional
METAR KHUL 272353Z AUTO 03018G28KT 10SM OVC035 06/M01 A2965 RMK AO2 PK WND 02034/2315 SLP044 60000 T00561011 10100 20056 53033

More Conditions Fewer Conditions

Pressure 29.66 in
Visibility 10.0 miles
Clouds Overcast 3500 ft
Windchill 32 °F
Dew Point 33 °F
Humidity 75%
Rainfall 0.02 in
Snow Depth Not available.
UV 0 out of 12
Pollen 5.50 out of 12
Air Quality Not available.
Flu Activity Regional
METAR KHUL 272353Z AUTO 03018G28KT 10SM OVC035 06/M01 A2965 RMK AO2 PK WND 02034/2315 SLP044 60000 T00561011 10100 20056 53033

More Conditions Fewer Conditions

10-Day Weather Forecast

Almanac

Astronomy

Apr. 27, 2015 Rise Set
Actual Time
Civil Twilight
Nautical Twilight
Astronomical Twilight
Moon
Length of Visible Light
Length of Day
Tomorrow will be .
, % of the Moon is Illuminated

Today's Extremes

State Highs State Lows

Community

WunderPhotos

Upload Photos

1,817,496 photos uploaded!

WunderBlogs® & News

Nearby

Air Quality

  Air Quality AQ Index Pollutant
Not available.

Snow Depth

Station Depth Elevation

Earthquake Activity

City Distance Mag. Time & Date
Minimum magnitude displayed is 2.5.

Coastal Water Temperatures

Place Temperature

Stations

Nearby Weather Stations

Station Location Temp. Windchill Dew Point Humidity Wind Precip. Elev Updated Type